sensor_id;sensor_type;location;lat;lon;timestamp;P1;durP1;ratioP1;P2;durP2;ratioP2
3297;SDS011;1661;53.572;10.174;2024-02-14T00:02:27;7.60;;;3.10;;
3297;SDS011;1661;53.572;10.174;2024-02-14T00:04:54;5.67;;;3.27;;
3297;SDS011;1661;53.572;10.174;2024-02-14T00:07:21;5.20;;;3.00;;
3297;SDS011;1661;53.572;10.174;2024-02-14T00:09:48;6.90;;;4.03;;
3297;SDS011;1661;53.572;10.174;2024-02-14T00:12:19;7.57;;;3.27;;
3297;SDS011;1661;53.572;10.174;2024-02-14T00:14:46;5.50;;;3.50;;
3297;SDS011;1661;53.572;10.174;2024-02-14T00:17:13;20.10;;;3.80;;
3297;SDS011;1661;53.572;10.174;2024-02-14T00:19:40;3.60;;;3.00;;
3297;SDS011;1661;53.572;10.174;2024-02-14T00:22:07;4.07;;;2.50;;
3297;SDS011;1661;53.572;10.174;2024-02-14T00:24:34;5.07;;;3.50;;
3297;SDS011;1661;53.572;10.174;2024-02-14T00:27:01;9.27;;;3.60;;
3297;SDS011;1661;53.572;10.174;2024-02-14T00:29:29;3.77;;;3.30;;
3297;SDS011;1661;53.572;10.174;2024-02-14T00:32:01;7.07;;;3.10;;
3297;SDS011;1661;53.572;10.174;2024-02-14T00:34:29;4.23;;;3.00;;
3297;SDS011;1661;53.572;10.174;2024-02-14T00:36:58;2.97;;;2.77;;
3297;SDS011;1661;53.572;10.174;2024-02-14T00:39:25;3.23;;;2.50;;
3297;SDS011;1661;53.572;10.174;2024-02-14T00:41:52;3.73;;;2.70;;
3297;SDS011;1661;53.572;10.174;2024-02-14T00:44:19;3.87;;;3.20;;
3297;SDS011;1661;53.572;10.174;2024-02-14T00:46:47;2.87;;;2.67;;
3297;SDS011;1661;53.572;10.174;2024-02-14T00:49:15;4.07;;;3.40;;
3297;SDS011;1661;53.572;10.174;2024-02-14T00:51:42;7.03;;;2.87;;
3297;SDS011;1661;53.572;10.174;2024-02-14T00:54:08;2.93;;;2.23;;
3297;SDS011;1661;53.572;10.174;2024-02-14T00:56:35;7.83;;;4.03;;
3297;SDS011;1661;53.572;10.174;2024-02-14T00:59:02;6.77;;;3.10;;
3297;SDS011;1661;53.572;10.174;2024-02-14T01:01:29;4.20;;;3.30;;
3297;SDS011;1661;53.572;10.174;2024-02-14T01:04:04;3.53;;;3.30;;
3297;SDS011;1661;53.572;10.174;2024-02-14T01:06:32;11.03;;;3.90;;
3297;SDS011;1661;53.572;10.174;2024-02-14T01:09:02;8.23;;;3.20;;
3297;SDS011;1661;53.572;10.174;2024-02-14T01:11:29;9.93;;;3.37;;
3297;SDS011;1661;53.572;10.174;2024-02-14T01:13:55;8.47;;;3.17;;
3297;SDS011;1661;53.572;10.174;2024-02-14T01:16:24;3.90;;;3.60;;
3297;SDS011;1661;53.572;10.174;2024-02-14T01:18:53;4.57;;;3.67;;
3297;SDS011;1661;53.572;10.174;2024-02-14T01:21:22;3.90;;;3.50;;
3297;SDS011;1661;53.572;10.174;2024-02-14T01:23:49;4.70;;;3.17;;
3297;SDS011;1661;53.572;10.174;2024-02-14T01:26:17;4.53;;;3.60;;
3297;SDS011;1661;53.572;10.174;2024-02-14T01:28:45;8.97;;;4.03;;
3297;SDS011;1661;53.572;10.174;2024-02-14T01:31:13;7.87;;;3.43;;
3297;SDS011;1661;53.572;10.174;2024-02-14T01:33:40;4.70;;;4.30;;
3297;SDS011;1661;53.572;10.174;2024-02-14T01:36:07;6.70;;;3.63;;
3297;SDS011;1661;53.572;10.174;2024-02-14T01:38:35;8.90;;;3.30;;
3297;SDS011;1661;53.572;10.174;2024-02-14T01:41:02;3.73;;;3.07;;
3297;SDS011;1661;53.572;10.174;2024-02-14T01:43:29;3.60;;;3.27;;
3297;SDS011;1661;53.572;10.174;2024-02-14T01:46:02;7.50;;;3.30;;
3297;SDS011;1661;53.572;10.174;2024-02-14T01:48:31;8.43;;;4.27;;
3297;SDS011;1661;53.572;10.174;2024-02-14T01:50:59;8.97;;;4.20;;
3297;SDS011;1661;53.572;10.174;2024-02-14T01:53:28;10.93;;;4.03;;
3297;SDS011;1661;53.572;10.174;2024-02-14T01:55:58;8.77;;;3.73;;
3297;SDS011;1661;53.572;10.174;2024-02-14T01:58:25;16.27;;;4.67;;
3297;SDS011;1661;53.572;10.174;2024-02-14T02:00:55;8.20;;;4.30;;
3297;SDS011;1661;53.572;10.174;2024-02-14T02:03:26;5.00;;;3.77;;
3297;SDS011;1661;53.572;10.174;2024-02-14T02:05:53;6.03;;;3.77;;
3297;SDS011;1661;53.572;10.174;2024-02-14T02:08:20;6.97;;;3.97;;
3297;SDS011;1661;53.572;10.174;2024-02-14T02:10:47;5.93;;;4.30;;
3297;SDS011;1661;53.572;10.174;2024-02-14T02:13:16;5.30;;;4.80;;
3297;SDS011;1661;53.572;10.174;2024-02-14T02:15:43;8.03;;;3.97;;
3297;SDS011;1661;53.572;10.174;2024-02-14T02:18:10;9.27;;;4.17;;
3297;SDS011;1661;53.572;10.174;2024-02-14T02:20:38;4.33;;;3.93;;
3297;SDS011;1661;53.572;10.174;2024-02-14T02:23:09;8.70;;;5.47;;
3297;SDS011;1661;53.572;10.174;2024-02-14T02:25:39;5.70;;;3.90;;
3297;SDS011;1661;53.572;10.174;2024-02-14T02:28:06;7.13;;;4.57;;
3297;SDS011;1661;53.572;10.174;2024-02-14T02:30:36;5.87;;;4.20;;
3297;SDS011;1661;53.572;10.174;2024-02-14T02:33:06;7.90;;;5.17;;
3297;SDS011;1661;53.572;10.174;2024-02-14T02:35:33;4.30;;;3.43;;
3297;SDS011;1661;53.572;10.174;2024-02-14T02:38:00;6.97;;;4.63;;
3297;SDS011;1661;53.572;10.174;2024-02-14T02:40:29;6.80;;;3.83;;
3297;SDS011;1661;53.572;10.174;2024-02-14T02:42:55;5.23;;;3.63;;
3297;SDS011;1661;53.572;10.174;2024-02-14T02:45:29;5.63;;;4.40;;
3297;SDS011;1661;53.572;10.174;2024-02-14T02:47:56;6.70;;;3.80;;
3297;SDS011;1661;53.572;10.174;2024-02-14T02:50:25;4.93;;;4.50;;
3297;SDS011;1661;53.572;10.174;2024-02-14T02:52:55;12.80;;;4.90;;
3297;SDS011;1661;53.572;10.174;2024-02-14T02:55:22;4.90;;;4.40;;
3297;SDS011;1661;53.572;10.174;2024-02-14T02:57:50;4.30;;;3.90;;
3297;SDS011;1661;53.572;10.174;2024-02-14T03:00:17;7.40;;;4.23;;
3297;SDS011;1661;53.572;10.174;2024-02-14T03:02:47;4.80;;;3.60;;
3297;SDS011;1661;53.572;10.174;2024-02-14T03:05:14;5.37;;;4.50;;
3297;SDS011;1661;53.572;10.174;2024-02-14T03:07:43;5.90;;;4.57;;
3297;SDS011;1661;53.572;10.174;2024-02-14T03:10:12;4.50;;;4.10;;
3297;SDS011;1661;53.572;10.174;2024-02-14T03:12:42;9.37;;;5.27;;
3297;SDS011;1661;53.572;10.174;2024-02-14T03:15:15;5.60;;;4.47;;
3297;SDS011;1661;53.572;10.174;2024-02-14T03:17:42;7.40;;;5.07;;
3297;SDS011;1661;53.572;10.174;2024-02-14T03:20:10;6.30;;;4.53;;
3297;SDS011;1661;53.572;10.174;2024-02-14T03:22:37;4.47;;;4.10;;
3297;SDS011;1661;53.572;10.174;2024-02-14T03:25:07;7.57;;;4.67;;
3297;SDS011;1661;53.572;10.174;2024-02-14T03:27:34;5.60;;;5.10;;
3297;SDS011;1661;53.572;10.174;2024-02-14T03:30:02;4.77;;;4.30;;
3297;SDS011;1661;53.572;10.174;2024-02-14T03:32:30;7.50;;;4.50;;
3297;SDS011;1661;53.572;10.174;2024-02-14T03:34:58;6.87;;;5.33;;
3297;SDS011;1661;53.572;10.174;2024-02-14T03:37:25;8.90;;;4.90;;
3297;SDS011;1661;53.572;10.174;2024-02-14T03:39:52;5.70;;;4.10;;
3297;SDS011;1661;53.572;10.174;2024-02-14T03:42:19;9.40;;;5.57;;
3297;SDS011;1661;53.572;10.174;2024-02-14T03:44:45;5.03;;;4.50;;
3297;SDS011;1661;53.572;10.174;2024-02-14T03:47:12;6.03;;;5.43;;
3297;SDS011;1661;53.572;10.174;2024-02-14T03:49:40;5.00;;;4.63;;
3297;SDS011;1661;53.572;10.174;2024-02-14T03:52:07;7.33;;;5.63;;
3297;SDS011;1661;53.572;10.174;2024-02-14T03:54:37;6.70;;;5.63;;
3297;SDS011;1661;53.572;10.174;2024-02-14T03:57:06;14.13;;;5.20;;
3297;SDS011;1661;53.572;10.174;2024-02-14T03:59:35;10.00;;;4.97;;
3297;SDS011;1661;53.572;10.174;2024-02-14T04:02:03;5.93;;;5.27;;
3297;SDS011;1661;53.572;10.174;2024-02-14T04:04:31;6.53;;;5.93;;
3297;SDS011;1661;53.572;10.174;2024-02-14T04:07:00;5.83;;;5.30;;
3297;SDS011;1661;53.572;10.174;2024-02-14T04:09:27;7.60;;;5.67;;
3297;SDS011;1661;53.572;10.174;2024-02-14T04:11:54;9.50;;;5.63;;
3297;SDS011;1661;53.572;10.174;2024-02-14T04:14:24;7.30;;;5.07;;
3297;SDS011;1661;53.572;10.174;2024-02-14T04:16:51;5.43;;;4.93;;
3297;SDS011;1661;53.572;10.174;2024-02-14T04:19:18;6.03;;;5.30;;
3297;SDS011;1661;53.572;10.174;2024-02-14T04:21:45;9.30;;;6.23;;
3297;SDS011;1661;53.572;10.174;2024-02-14T04:24:13;8.03;;;4.97;;
3297;SDS011;1661;53.572;10.174;2024-02-14T04:26:40;6.37;;;4.90;;
3297;SDS011;1661;53.572;10.174;2024-02-14T04:29:07;14.80;;;5.40;;
3297;SDS011;1661;53.572;10.174;2024-02-14T04:31:34;6.40;;;5.70;;
3297;SDS011;1661;53.572;10.174;2024-02-14T04:34:01;6.50;;;5.83;;
3297;SDS011;1661;53.572;10.174;2024-02-14T04:36:27;10.47;;;6.20;;
3297;SDS011;1661;53.572;10.174;2024-02-14T04:38:56;9.63;;;6.57;;
3297;SDS011;1661;53.572;10.174;2024-02-14T04:41:25;7.50;;;5.60;;
3297;SDS011;1661;53.572;10.174;2024-02-14T04:43:52;8.57;;;6.10;;
3297;SDS011;1661;53.572;10.174;2024-02-14T04:46:19;10.70;;;6.53;;
3297;SDS011;1661;53.572;10.174;2024-02-14T04:48:47;7.93;;;5.87;;
3297;SDS011;1661;53.572;10.174;2024-02-14T04:51:14;6.90;;;5.93;;
3297;SDS011;1661;53.572;10.174;2024-02-14T04:53:41;8.30;;;5.13;;
3297;SDS011;1661;53.572;10.174;2024-02-14T04:56:09;8.73;;;6.10;;
3297;SDS011;1661;53.572;10.174;2024-02-14T04:58:38;14.30;;;6.17;;
3297;SDS011;1661;53.572;10.174;2024-02-14T05:01:04;5.70;;;5.10;;
3297;SDS011;1661;53.572;10.174;2024-02-14T05:03:40;11.37;;;5.73;;
3297;SDS011;1661;53.572;10.174;2024-02-14T05:06:07;15.20;;;6.30;;
3297;SDS011;1661;53.572;10.174;2024-02-14T05:08:33;11.83;;;6.17;;
3297;SDS011;1661;53.572;10.174;2024-02-14T05:11:00;6.50;;;5.93;;
3297;SDS011;1661;53.572;10.174;2024-02-14T05:13:28;8.93;;;6.13;;
3297;SDS011;1661;53.572;10.174;2024-02-14T05:15:56;6.47;;;5.87;;
3297;SDS011;1661;53.572;10.174;2024-02-14T05:18:23;11.10;;;5.40;;
3297;SDS011;1661;53.572;10.174;2024-02-14T05:20:49;10.50;;;7.37;;
3297;SDS011;1661;53.572;10.174;2024-02-14T05:23:16;13.73;;;7.07;;
3297;SDS011;1661;53.572;10.174;2024-02-14T05:25:43;8.93;;;7.30;;
3297;SDS011;1661;53.572;10.174;2024-02-14T05:28:10;8.70;;;6.73;;
3297;SDS011;1661;53.572;10.174;2024-02-14T05:30:38;16.70;;;8.63;;
3297;SDS011;1661;53.572;10.174;2024-02-14T05:33:12;9.00;;;6.70;;
3297;SDS011;1661;53.572;10.174;2024-02-14T05:35:39;7.57;;;6.20;;
3297;SDS011;1661;53.572;10.174;2024-02-14T05:38:06;9.33;;;6.13;;
3297;SDS011;1661;53.572;10.174;2024-02-14T05:40:33;8.57;;;7.37;;
3297;SDS011;1661;53.572;10.174;2024-02-14T05:43:04;9.63;;;7.23;;
3297;SDS011;1661;53.572;10.174;2024-02-14T05:45:32;12.80;;;6.77;;
3297;SDS011;1661;53.572;10.174;2024-02-14T05:47:59;8.60;;;6.93;;
3297;SDS011;1661;53.572;10.174;2024-02-14T05:50:27;8.23;;;6.60;;
3297;SDS011;1661;53.572;10.174;2024-02-14T05:52:54;7.60;;;6.70;;
3297;SDS011;1661;53.572;10.174;2024-02-14T05:55:22;11.80;;;8.83;;
3297;SDS011;1661;53.572;10.174;2024-02-14T05:57:49;7.90;;;6.90;;
3297;SDS011;1661;53.572;10.174;2024-02-14T06:00:16;8.10;;;7.30;;
3297;SDS011;1661;53.572;10.174;2024-02-14T06:02:45;7.97;;;6.10;;
3297;SDS011;1661;53.572;10.174;2024-02-14T06:05:12;11.23;;;7.80;;
3297;SDS011;1661;53.572;10.174;2024-02-14T06:07:40;7.50;;;6.77;;
3297;SDS011;1661;53.572;10.174;2024-02-14T06:10:10;9.23;;;6.80;;
3297;SDS011;1661;53.572;10.174;2024-02-14T06:12:39;9.73;;;8.20;;
3297;SDS011;1661;53.572;10.174;2024-02-14T06:15:08;8.13;;;7.30;;
3297;SDS011;1661;53.572;10.174;2024-02-14T06:17:35;11.30;;;7.70;;
3297;SDS011;1661;53.572;10.174;2024-02-14T06:20:02;11.17;;;8.00;;
3297;SDS011;1661;53.572;10.174;2024-02-14T06:22:32;8.07;;;7.13;;
3297;SDS011;1661;53.572;10.174;2024-02-14T06:25:00;9.13;;;7.80;;
3297;SDS011;1661;53.572;10.174;2024-02-14T06:27:33;9.27;;;7.67;;
3297;SDS011;1661;53.572;10.174;2024-02-14T06:30:00;10.83;;;7.70;;
3297;SDS011;1661;53.572;10.174;2024-02-14T06:32:27;8.70;;;7.77;;
3297;SDS011;1661;53.572;10.174;2024-02-14T06:34:53;8.60;;;7.70;;
3297;SDS011;1661;53.572;10.174;2024-02-14T06:37:20;10.77;;;7.70;;
3297;SDS011;1661;53.572;10.174;2024-02-14T06:39:47;9.13;;;7.57;;
3297;SDS011;1661;53.572;10.174;2024-02-14T06:42:15;11.87;;;7.83;;
3297;SDS011;1661;53.572;10.174;2024-02-14T06:44:43;9.00;;;7.67;;
3297;SDS011;1661;53.572;10.174;2024-02-14T06:47:09;12.33;;;9.20;;
3297;SDS011;1661;53.572;10.174;2024-02-14T06:49:36;9.30;;;8.40;;
3297;SDS011;1661;53.572;10.174;2024-02-14T06:52:03;11.33;;;8.50;;
3297;SDS011;1661;53.572;10.174;2024-02-14T06:54:31;11.90;;;8.70;;
3297;SDS011;1661;53.572;10.174;2024-02-14T06:56:57;10.27;;;9.17;;
3297;SDS011;1661;53.572;10.174;2024-02-14T06:59:26;11.27;;;10.07;;
3297;SDS011;1661;53.572;10.174;2024-02-14T07:01:53;12.87;;;9.63;;
3297;SDS011;1661;53.572;10.174;2024-02-14T07:04:20;14.63;;;10.27;;
3297;SDS011;1661;53.572;10.174;2024-02-14T07:06:50;10.93;;;8.73;;
3297;SDS011;1661;53.572;10.174;2024-02-14T07:09:17;14.00;;;9.50;;
3297;SDS011;1661;53.572;10.174;2024-02-14T07:11:44;12.37;;;10.07;;
3297;SDS011;1661;53.572;10.174;2024-02-14T07:14:11;12.90;;;8.53;;
3297;SDS011;1661;53.572;10.174;2024-02-14T07:16:39;14.30;;;9.97;;
3297;SDS011;1661;53.572;10.174;2024-02-14T07:19:10;12.27;;;8.50;;
3297;SDS011;1661;53.572;10.174;2024-02-14T07:21:37;9.73;;;8.33;;
3297;SDS011;1661;53.572;10.174;2024-02-14T07:24:04;10.50;;;8.97;;
3297;SDS011;1661;53.572;10.174;2024-02-14T07:26:31;9.10;;;7.37;;
3297;SDS011;1661;53.572;10.174;2024-02-14T07:28:58;10.07;;;8.57;;
3297;SDS011;1661;53.572;10.174;2024-02-14T07:31:28;10.47;;;9.37;;
3297;SDS011;1661;53.572;10.174;2024-02-14T07:33:59;12.37;;;9.93;;
3297;SDS011;1661;53.572;10.174;2024-02-14T07:36:28;10.30;;;8.30;;
3297;SDS011;1661;53.572;10.174;2024-02-14T07:38:57;14.83;;;9.00;;
3297;SDS011;1661;53.572;10.174;2024-02-14T07:41:24;10.70;;;8.97;;
3297;SDS011;1661;53.572;10.174;2024-02-14T07:43:50;13.33;;;7.97;;
3297;SDS011;1661;53.572;10.174;2024-02-14T07:46:18;12.20;;;9.60;;
3297;SDS011;1661;53.572;10.174;2024-02-14T07:48:45;10.67;;;9.57;;
3297;SDS011;1661;53.572;10.174;2024-02-14T07:51:15;13.73;;;8.87;;
3297;SDS011;1661;53.572;10.174;2024-02-14T07:53:42;19.30;;;9.53;;
3297;SDS011;1661;53.572;10.174;2024-02-14T07:56:09;10.53;;;8.60;;
3297;SDS011;1661;53.572;10.174;2024-02-14T07:58:35;10.43;;;9.33;;
3297;SDS011;1661;53.572;10.174;2024-02-14T08:01:05;13.37;;;9.47;;
3297;SDS011;1661;53.572;10.174;2024-02-14T08:03:31;13.23;;;8.47;;
3297;SDS011;1661;53.572;10.174;2024-02-14T08:05:58;12.67;;;9.60;;
3297;SDS011;1661;53.572;10.174;2024-02-14T08:08:27;9.60;;;8.00;;
3297;SDS011;1661;53.572;10.174;2024-02-14T08:10:53;11.80;;;9.10;;
3297;SDS011;1661;53.572;10.174;2024-02-14T08:13:20;11.83;;;9.87;;
3297;SDS011;1661;53.572;10.174;2024-02-14T08:15:47;14.37;;;9.80;;
3297;SDS011;1661;53.572;10.174;2024-02-14T08:18:14;14.40;;;9.00;;
3297;SDS011;1661;53.572;10.174;2024-02-14T08:20:41;14.57;;;9.53;;
3297;SDS011;1661;53.572;10.174;2024-02-14T08:23:08;17.17;;;9.57;;
3297;SDS011;1661;53.572;10.174;2024-02-14T08:25:36;10.93;;;7.60;;
3297;SDS011;1661;53.572;10.174;2024-02-14T08:28:03;10.37;;;8.27;;
3297;SDS011;1661;53.572;10.174;2024-02-14T08:30:32;10.60;;;8.90;;
3297;SDS011;1661;53.572;10.174;2024-02-14T08:32:59;13.13;;;9.83;;
3297;SDS011;1661;53.572;10.174;2024-02-14T08:35:29;9.10;;;7.47;;
3297;SDS011;1661;53.572;10.174;2024-02-14T08:37:56;14.30;;;9.60;;
3297;SDS011;1661;53.572;10.174;2024-02-14T08:40:22;12.07;;;8.80;;
3297;SDS011;1661;53.572;10.174;2024-02-14T08:42:56;9.63;;;8.63;;
3297;SDS011;1661;53.572;10.174;2024-02-14T08:45:32;9.83;;;8.10;;
3297;SDS011;1661;53.572;10.174;2024-02-14T08:47:59;10.80;;;9.50;;
3297;SDS011;1661;53.572;10.174;2024-02-14T08:50:26;10.33;;;8.60;;
3297;SDS011;1661;53.572;10.174;2024-02-14T08:52:55;9.60;;;8.40;;
3297;SDS011;1661;53.572;10.174;2024-02-14T08:55:22;10.50;;;7.43;;
3297;SDS011;1661;53.572;10.174;2024-02-14T08:57:49;11.50;;;8.50;;
3297;SDS011;1661;53.572;10.174;2024-02-14T09:00:17;11.27;;;8.20;;
3297;SDS011;1661;53.572;10.174;2024-02-14T09:02:44;11.23;;;9.40;;
3297;SDS011;1661;53.572;10.174;2024-02-14T09:05:12;11.33;;;9.07;;
3297;SDS011;1661;53.572;10.174;2024-02-14T09:07:39;12.90;;;8.10;;
3297;SDS011;1661;53.572;10.174;2024-02-14T09:10:07;13.20;;;8.20;;
3297;SDS011;1661;53.572;10.174;2024-02-14T09:12:35;9.30;;;8.33;;
3297;SDS011;1661;53.572;10.174;2024-02-14T09:15:02;12.43;;;8.77;;
3297;SDS011;1661;53.572;10.174;2024-02-14T09:17:31;9.37;;;8.43;;
3297;SDS011;1661;53.572;10.174;2024-02-14T09:19:58;12.50;;;8.00;;
3297;SDS011;1661;53.572;10.174;2024-02-14T09:22:25;9.60;;;7.63;;
3297;SDS011;1661;53.572;10.174;2024-02-14T09:24:54;8.30;;;7.53;;
3297;SDS011;1661;53.572;10.174;2024-02-14T09:27:21;11.37;;;7.30;;
3297;SDS011;1661;53.572;10.174;2024-02-14T09:29:53;8.40;;;7.37;;
3297;SDS011;1661;53.572;10.174;2024-02-14T09:32:20;10.07;;;7.10;;
3297;SDS011;1661;53.572;10.174;2024-02-14T09:34:50;7.83;;;7.03;;
3297;SDS011;1661;53.572;10.174;2024-02-14T09:37:17;7.80;;;7.07;;
3297;SDS011;1661;53.572;10.174;2024-02-14T09:39:44;8.20;;;7.33;;
3297;SDS011;1661;53.572;10.174;2024-02-14T09:42:13;8.23;;;6.93;;
3297;SDS011;1661;53.572;10.174;2024-02-14T09:44:42;7.47;;;6.73;;
3297;SDS011;1661;53.572;10.174;2024-02-14T09:47:09;10.33;;;7.10;;
3297;SDS011;1661;53.572;10.174;2024-02-14T09:49:37;8.00;;;7.30;;
3297;SDS011;1661;53.572;10.174;2024-02-14T09:52:09;8.23;;;6.97;;
3297;SDS011;1661;53.572;10.174;2024-02-14T09:54:38;10.60;;;6.80;;
3297;SDS011;1661;53.572;10.174;2024-02-14T09:57:09;9.93;;;7.20;;
3297;SDS011;1661;53.572;10.174;2024-02-14T09:59:44;8.60;;;7.80;;
3297;SDS011;1661;53.572;10.174;2024-02-14T10:02:11;7.47;;;6.77;;
3297;SDS011;1661;53.572;10.174;2024-02-14T10:04:38;8.10;;;7.30;;
3297;SDS011;1661;53.572;10.174;2024-02-14T10:07:08;8.60;;;7.80;;
3297;SDS011;1661;53.572;10.174;2024-02-14T10:09:40;8.70;;;7.80;;
3297;SDS011;1661;53.572;10.174;2024-02-14T10:12:07;5.90;;;5.30;;
3297;SDS011;1661;53.572;10.174;2024-02-14T10:14:34;7.93;;;7.33;;
3297;SDS011;1661;53.572;10.174;2024-02-14T10:17:02;8.00;;;7.03;;
3297;SDS011;1661;53.572;10.174;2024-02-14T10:19:35;6.70;;;5.97;;
3297;SDS011;1661;53.572;10.174;2024-02-14T10:22:02;8.90;;;7.27;;
3297;SDS011;1661;53.572;10.174;2024-02-14T10:24:35;7.93;;;7.03;;
3297;SDS011;1661;53.572;10.174;2024-02-14T10:27:01;7.00;;;6.30;;
3297;SDS011;1661;53.572;10.174;2024-02-14T10:29:34;6.97;;;6.10;;
3297;SDS011;1661;53.572;10.174;2024-02-14T10:32:00;8.23;;;6.97;;
3297;SDS011;1661;53.572;10.174;2024-02-14T10:34:27;6.87;;;6.23;;
3297;SDS011;1661;53.572;10.174;2024-02-14T10:36:56;7.77;;;7.07;;
3297;SDS011;1661;53.572;10.174;2024-02-14T10:39:26;6.93;;;6.47;;
3297;SDS011;1661;53.572;10.174;2024-02-14T10:42:02;7.27;;;6.50;;
3297;SDS011;1661;53.572;10.174;2024-02-14T10:44:29;6.30;;;5.80;;
3297;SDS011;1661;53.572;10.174;2024-02-14T10:46:56;7.00;;;6.40;;
3297;SDS011;1661;53.572;10.174;2024-02-14T10:49:27;6.80;;;6.20;;
3297;SDS011;1661;53.572;10.174;2024-02-14T10:51:56;6.63;;;6.07;;
3297;SDS011;1661;53.572;10.174;2024-02-14T10:54:27;7.40;;;6.40;;
3297;SDS011;1661;53.572;10.174;2024-02-14T10:56:54;6.80;;;6.13;;
3297;SDS011;1661;53.572;10.174;2024-02-14T10:59:25;7.10;;;6.40;;
3297;SDS011;1661;53.572;10.174;2024-02-14T11:01:53;7.27;;;5.97;;
3297;SDS011;1661;53.572;10.174;2024-02-14T11:04:22;8.27;;;7.40;;
3297;SDS011;1661;53.572;10.174;2024-02-14T11:06:52;7.47;;;6.13;;
3297;SDS011;1661;53.572;10.174;2024-02-14T11:09:31;7.30;;;6.70;;
3297;SDS011;1661;53.572;10.174;2024-02-14T11:11:58;7.00;;;6.40;;
3297;SDS011;1661;53.572;10.174;2024-02-14T11:14:36;8.70;;;6.80;;
3297;SDS011;1661;53.572;10.174;2024-02-14T11:17:04;9.83;;;7.10;;
3297;SDS011;1661;53.572;10.174;2024-02-14T11:19:34;8.60;;;7.10;;
3297;SDS011;1661;53.572;10.174;2024-02-14T11:22:09;6.70;;;6.10;;
3297;SDS011;1661;53.572;10.174;2024-02-14T11:24:38;8.00;;;7.20;;
3297;SDS011;1661;53.572;10.174;2024-02-14T11:27:09;8.13;;;6.90;;
3297;SDS011;1661;53.572;10.174;2024-02-14T11:29:40;8.60;;;7.83;;
3297;SDS011;1661;53.572;10.174;2024-02-14T11:32:17;7.63;;;6.93;;
3297;SDS011;1661;53.572;10.174;2024-02-14T11:34:44;8.93;;;7.57;;
3297;SDS011;1661;53.572;10.174;2024-02-14T11:37:19;9.00;;;8.13;;
3297;SDS011;1661;53.572;10.174;2024-02-14T11:39:48;7.93;;;7.27;;
3297;SDS011;1661;53.572;10.174;2024-02-14T11:42:15;8.90;;;8.00;;
3297;SDS011;1661;53.572;10.174;2024-02-14T11:44:46;8.03;;;7.33;;
3297;SDS011;1661;53.572;10.174;2024-02-14T11:47:14;6.67;;;6.07;;
3297;SDS011;1661;53.572;10.174;2024-02-14T11:49:40;8.00;;;7.30;;
3297;SDS011;1661;53.572;10.174;2024-02-14T11:52:09;6.50;;;5.90;;
3297;SDS011;1661;53.572;10.174;2024-02-14T11:54:36;9.23;;;8.37;;
3297;SDS011;1661;53.572;10.174;2024-02-14T11:57:03;7.83;;;7.17;;
3297;SDS011;1661;53.572;10.174;2024-02-14T11:59:30;8.17;;;6.70;;
3297;SDS011;1661;53.572;10.174;2024-02-14T12:02:01;7.90;;;7.10;;
3297;SDS011;1661;53.572;10.174;2024-02-14T12:04:31;7.80;;;6.27;;
3297;SDS011;1661;53.572;10.174;2024-02-14T12:06:58;7.50;;;6.60;;
3297;SDS011;1661;53.572;10.174;2024-02-14T12:09:25;7.80;;;7.10;;
3297;SDS011;1661;53.572;10.174;2024-02-14T12:11:54;8.17;;;7.50;;
3297;SDS011;1661;53.572;10.174;2024-02-14T12:14:21;7.93;;;7.23;;
3297;SDS011;1661;53.572;10.174;2024-02-14T12:16:55;8.57;;;7.80;;
3297;SDS011;1661;53.572;10.174;2024-02-14T12:19:31;7.77;;;7.07;;
3297;SDS011;1661;53.572;10.174;2024-02-14T12:21:59;9.57;;;7.10;;
3297;SDS011;1661;53.572;10.174;2024-02-14T12:24:27;8.10;;;7.30;;
3297;SDS011;1661;53.572;10.174;2024-02-14T12:26:54;12.80;;;8.70;;
3297;SDS011;1661;53.572;10.174;2024-02-14T12:29:23;9.20;;;8.00;;
3297;SDS011;1661;53.572;10.174;2024-02-14T12:31:50;9.30;;;8.40;;
3297;SDS011;1661;53.572;10.174;2024-02-14T12:34:19;9.70;;;8.20;;
3297;SDS011;1661;53.572;10.174;2024-02-14T12:36:47;9.50;;;8.67;;
3297;SDS011;1661;53.572;10.174;2024-02-14T12:39:17;10.40;;;9.30;;
3297;SDS011;1661;53.572;10.174;2024-02-14T12:41:46;11.17;;;10.00;;
3297;SDS011;1661;53.572;10.174;2024-02-14T12:44:16;13.60;;;10.20;;
3297;SDS011;1661;53.572;10.174;2024-02-14T12:46:42;12.33;;;9.67;;
3297;SDS011;1661;53.572;10.174;2024-02-14T12:49:09;12.83;;;11.67;;
3297;SDS011;1661;53.572;10.174;2024-02-14T12:51:38;11.23;;;9.77;;
3297;SDS011;1661;53.572;10.174;2024-02-14T12:54:07;12.00;;;10.10;;
3297;SDS011;1661;53.572;10.174;2024-02-14T12:56:35;16.30;;;10.93;;
3297;SDS011;1661;53.572;10.174;2024-02-14T12:59:01;14.83;;;11.13;;
3297;SDS011;1661;53.572;10.174;2024-02-14T13:01:28;13.30;;;10.00;;
3297;SDS011;1661;53.572;10.174;2024-02-14T13:03:55;14.33;;;11.80;;
3297;SDS011;1661;53.572;10.174;2024-02-14T13:06:22;13.20;;;10.60;;
3297;SDS011;1661;53.572;10.174;2024-02-14T13:08:49;12.47;;;9.77;;
3297;SDS011;1661;53.572;10.174;2024-02-14T13:11:17;15.57;;;11.27;;
3297;SDS011;1661;53.572;10.174;2024-02-14T13:13:44;13.93;;;11.50;;
3297;SDS011;1661;53.572;10.174;2024-02-14T13:16:14;20.17;;;11.50;;
3297;SDS011;1661;53.572;10.174;2024-02-14T13:18:41;15.40;;;12.50;;
3297;SDS011;1661;53.572;10.174;2024-02-14T13:21:11;13.90;;;11.90;;
3297;SDS011;1661;53.572;10.174;2024-02-14T13:23:38;14.30;;;12.57;;
3297;SDS011;1661;53.572;10.174;2024-02-14T13:26:05;16.30;;;12.67;;
3297;SDS011;1661;53.572;10.174;2024-02-14T13:28:34;17.27;;;14.30;;
3297;SDS011;1661;53.572;10.174;2024-02-14T13:31:01;22.70;;;14.30;;
3297;SDS011;1661;53.572;10.174;2024-02-14T13:33:28;19.43;;;13.57;;
3297;SDS011;1661;53.572;10.174;2024-02-14T13:35:54;14.90;;;12.60;;
3297;SDS011;1661;53.572;10.174;2024-02-14T13:38:22;14.30;;;12.07;;
3297;SDS011;1661;53.572;10.174;2024-02-14T13:40:49;14.23;;;11.60;;
3297;SDS011;1661;53.572;10.174;2024-02-14T13:43:19;14.10;;;11.27;;
3297;SDS011;1661;53.572;10.174;2024-02-14T13:45:47;12.13;;;10.87;;
3297;SDS011;1661;53.572;10.174;2024-02-14T13:48:16;16.10;;;11.53;;
3297;SDS011;1661;53.572;10.174;2024-02-14T13:50:43;17.40;;;10.70;;
3297;SDS011;1661;53.572;10.174;2024-02-14T13:53:10;13.40;;;11.63;;
3297;SDS011;1661;53.572;10.174;2024-02-14T13:55:37;15.13;;;11.90;;
3297;SDS011;1661;53.572;10.174;2024-02-14T13:58:06;12.23;;;10.87;;
3297;SDS011;1661;53.572;10.174;2024-02-14T14:00:41;13.40;;;10.13;;
3297;SDS011;1661;53.572;10.174;2024-02-14T14:03:13;13.27;;;11.40;;
3297;SDS011;1661;53.572;10.174;2024-02-14T14:05:39;17.87;;;11.70;;
3297;SDS011;1661;53.572;10.174;2024-02-14T14:08:06;12.37;;;10.40;;
3297;SDS011;1661;53.572;10.174;2024-02-14T14:10:33;12.90;;;11.60;;
3297;SDS011;1661;53.572;10.174;2024-02-14T14:13:00;13.63;;;11.63;;
3297;SDS011;1661;53.572;10.174;2024-02-14T14:15:26;13.67;;;12.27;;
3297;SDS011;1661;53.572;10.174;2024-02-14T14:17:54;13.83;;;11.07;;
3297;SDS011;1661;53.572;10.174;2024-02-14T14:20:23;11.63;;;9.80;;
3297;SDS011;1661;53.572;10.174;2024-02-14T14:22:50;11.97;;;10.10;;
3297;SDS011;1661;53.572;10.174;2024-02-14T14:25:19;15.57;;;11.67;;
3297;SDS011;1661;53.572;10.174;2024-02-14T14:27:54;16.47;;;10.70;;
3297;SDS011;1661;53.572;10.174;2024-02-14T14:30:21;11.47;;;10.23;;
3297;SDS011;1661;53.572;10.174;2024-02-14T14:32:48;8.73;;;7.90;;
3297;SDS011;1661;53.572;10.174;2024-02-14T14:35:17;9.27;;;8.40;;
3297;SDS011;1661;53.572;10.174;2024-02-14T14:37:46;10.37;;;9.00;;
3297;SDS011;1661;53.572;10.174;2024-02-14T14:40:13;8.40;;;7.60;;
3297;SDS011;1661;53.572;10.174;2024-02-14T14:42:39;8.53;;;7.63;;
3297;SDS011;1661;53.572;10.174;2024-02-14T14:45:06;9.73;;;8.67;;
3297;SDS011;1661;53.572;10.174;2024-02-14T14:47:33;8.53;;;7.73;;
3297;SDS011;1661;53.572;10.174;2024-02-14T14:50:01;9.07;;;8.27;;
3297;SDS011;1661;53.572;10.174;2024-02-14T14:52:28;9.47;;;8.50;;
3297;SDS011;1661;53.572;10.174;2024-02-14T14:54:56;9.50;;;8.53;;
3297;SDS011;1661;53.572;10.174;2024-02-14T14:57:23;9.47;;;8.57;;
3297;SDS011;1661;53.572;10.174;2024-02-14T14:59:50;11.63;;;10.43;;
3297;SDS011;1661;53.572;10.174;2024-02-14T15:02:19;12.20;;;9.73;;